createdAt,value
2018-12-12T00:00:41.073Z,976.28
2018-12-12T00:01:41.144Z,976.24
2018-12-12T00:02:41.172Z,976.21
2018-12-12T00:03:41.186Z,976.23
2018-12-12T00:04:41.224Z,976.21
2018-12-12T00:05:41.261Z,976.23
2018-12-12T00:06:41.310Z,976.24
2018-12-12T00:07:41.361Z,976.25
2018-12-12T00:08:41.456Z,976.23
2018-12-12T00:09:41.417Z,976.25
2018-12-12T00:10:41.458Z,976.18
2018-12-12T00:11:41.495Z,976.16
2018-12-12T00:12:41.549Z,976.19
2018-12-12T00:13:41.569Z,976.17
2018-12-12T00:14:41.605Z,976.18
2018-12-12T00:15:41.662Z,976.19
2018-12-12T00:16:41.707Z,976.16
2018-12-12T00:17:41.723Z,976.19
2018-12-12T00:18:41.786Z,976.19
2018-12-12T00:19:41.799Z,976.16
2018-12-12T00:20:41.840Z,976.20
2018-12-12T00:21:41.876Z,976.18
2018-12-12T00:22:41.911Z,976.12
2018-12-12T00:23:41.978Z,976.14
2018-12-12T00:24:41.989Z,976.12
2018-12-12T00:25:42.025Z,976.13
2018-12-12T00:26:42.120Z,976.12
2018-12-12T00:27:42.110Z,976.14
2018-12-12T00:28:42.141Z,976.09
2018-12-12T00:29:42.199Z,976.10
2018-12-12T00:30:42.219Z,976.14
2018-12-12T00:31:42.285Z,976.10
2018-12-12T00:32:42.295Z,976.11
2018-12-12T00:33:42.334Z,976.05
2018-12-12T00:34:42.401Z,976.02
2018-12-12T00:35:42.420Z,976.03
2018-12-12T00:36:42.472Z,976.02
2018-12-12T00:37:42.485Z,976.04
2018-12-12T00:38:42.524Z,976.04
2018-12-12T00:39:42.563Z,976.02
2018-12-12T00:40:42.596Z,976.01
2018-12-12T00:41:42.655Z,976.03
2018-12-12T00:42:42.692Z,976.03
2018-12-12T00:43:42.713Z,976.03
2018-12-12T00:44:42.755Z,976.01
2018-12-12T00:45:42.794Z,976.02
2018-12-12T00:46:42.834Z,976.05
2018-12-12T00:47:42.886Z,976.00
2018-12-12T00:48:42.911Z,976.01
2018-12-12T00:49:42.951Z,976.00
2018-12-12T00:50:42.978Z,975.97
2018-12-12T00:51:43.056Z,975.97
2018-12-12T00:52:43.075Z,976.01
2018-12-12T00:53:43.095Z,976.03
2018-12-12T00:54:43.164Z,976.01
2018-12-12T00:55:43.171Z,976.06
2018-12-12T00:56:43.207Z,976.07
2018-12-12T00:57:43.246Z,976.11
2018-12-12T00:58:43.361Z,976.06
2018-12-12T00:59:43.350Z,976.08
2018-12-12T01:00:43.362Z,976.06
2018-12-12T01:01:43.395Z,976.04
2018-12-12T01:02:43.433Z,976.04
2018-12-12T01:03:43.471Z,976.07
2018-12-12T01:04:43.529Z,976.08
2018-12-12T01:05:43.558Z,976.15
2018-12-12T01:06:43.586Z,976.15
2018-12-12T01:07:43.623Z,976.16
2018-12-12T01:08:43.661Z,976.19
2018-12-12T01:09:43.745Z,976.21
2018-12-12T01:10:43.734Z,976.24
2018-12-12T01:11:43.786Z,976.22
2018-12-12T01:12:43.818Z,976.27
2018-12-12T01:13:43.851Z,976.30
2018-12-12T01:14:43.913Z,976.25
2018-12-12T01:15:43.929Z,976.27
2018-12-12T01:16:44.023Z,976.28
2018-12-12T01:17:44.000Z,976.25
2018-12-12T01:18:44.040Z,976.20
2018-12-12T01:19:44.099Z,976.23
2018-12-12T01:20:44.146Z,976.23
2018-12-12T01:21:44.152Z,976.26
2018-12-12T01:22:44.219Z,976.24
2018-12-12T01:23:44.231Z,976.27
2018-12-12T01:24:44.267Z,976.28
2018-12-12T01:25:44.348Z,976.24
2018-12-12T01:26:44.348Z,976.22
2018-12-12T01:27:44.408Z,976.28
2018-12-12T01:28:44.417Z,976.26
2018-12-12T01:29:44.455Z,976.24
2018-12-12T01:30:44.496Z,976.25
2018-12-12T01:31:44.532Z,976.25
2018-12-12T01:32:44.590Z,976.23
2018-12-12T01:33:44.620Z,976.18
2018-12-12T01:34:44.648Z,976.22
2018-12-12T01:35:44.682Z,976.24
2018-12-12T01:36:44.723Z,976.23
2018-12-12T01:37:44.777Z,976.24
2018-12-12T01:38:44.797Z,976.20
2018-12-12T01:39:44.852Z,976.23
2018-12-12T01:40:44.909Z,976.23
2018-12-12T01:41:44.961Z,976.21
2018-12-12T01:42:44.969Z,976.20
2018-12-12T01:43:44.983Z,976.19
2018-12-12T01:44:45.021Z,976.20
2018-12-12T01:45:45.063Z,976.21
2018-12-12T01:46:45.101Z,976.22
2018-12-12T01:47:45.165Z,976.21
2018-12-12T01:48:45.196Z,976.21
2018-12-12T01:49:45.212Z,976.24
2018-12-12T01:50:45.257Z,976.22
2018-12-12T01:51:45.288Z,976.24
2018-12-12T01:52:45.328Z,976.20
2018-12-12T01:53:45.391Z,976.21
2018-12-12T01:54:45.399Z,976.19
2018-12-12T01:55:45.443Z,976.20
2018-12-12T01:56:45.479Z,976.17
2018-12-12T01:57:45.515Z,976.13
2018-12-12T01:58:45.576Z,976.15
2018-12-12T01:59:45.590Z,976.15
2018-12-12T02:00:45.625Z,976.14
2018-12-12T02:01:45.665Z,976.12
2018-12-12T02:02:45.700Z,976.12
2018-12-12T02:03:45.761Z,976.15
2018-12-12T02:04:45.777Z,976.13
2018-12-12T02:05:45.814Z,976.11
2018-12-12T02:06:45.956Z,976.08
2018-12-12T02:07:45.897Z,976.09
2018-12-12T02:08:46.286Z,976.08
2018-12-12T02:09:45.972Z,976.08
2018-12-12T02:10:46.027Z,976.06
2018-12-12T02:11:46.041Z,976.09
2018-12-12T02:12:46.086Z,976.10
2018-12-12T02:13:46.114Z,976.07
2018-12-12T02:14:46.178Z,976.08
2018-12-12T02:15:46.191Z,976.05
2018-12-12T02:16:46.233Z,976.05
2018-12-12T02:17:46.270Z,976.10
2018-12-12T02:18:46.308Z,976.00
2018-12-12T02:19:46.361Z,976.05
2018-12-12T02:20:46.379Z,976.03
2018-12-12T02:21:46.420Z,976.06
2018-12-12T02:22:46.474Z,976.07
2018-12-12T02:23:46.492Z,976.08
2018-12-12T02:24:46.632Z,976.09
2018-12-12T02:25:46.595Z,976.08
2018-12-12T02:26:46.606Z,976.09
2018-12-12T02:27:46.662Z,976.10
2018-12-12T02:28:46.691Z,976.05
2018-12-12T02:29:46.719Z,976.04
2018-12-12T02:30:46.755Z,976.05
2018-12-12T02:31:47.049Z,976.02
2018-12-12T02:32:46.835Z,976.09
2018-12-12T02:33:46.870Z,976.06
2018-12-12T02:34:46.934Z,976.07
2018-12-12T02:35:46.943Z,976.06
2018-12-12T02:36:46.981Z,976.09
2018-12-12T02:37:47.038Z,976.05
2018-12-12T02:38:47.062Z,976.06
2018-12-12T02:39:47.191Z,976.06
2018-12-12T02:40:47.132Z,976.05
2018-12-12T02:41:47.172Z,976.06
2018-12-12T02:42:47.250Z,976.03
2018-12-12T02:43:47.245Z,976.04
2018-12-12T02:44:47.288Z,976.06
2018-12-12T02:45:47.323Z,976.03
2018-12-12T02:46:47.357Z,976.05
2018-12-12T02:47:47.418Z,976.01
2018-12-12T02:48:47.438Z,976.02
2018-12-12T02:49:47.552Z,975.99
2018-12-12T02:50:47.533Z,976.01
2018-12-12T02:51:47.546Z,975.99
2018-12-12T02:52:47.586Z,975.96
2018-12-12T02:53:47.623Z,976.01
2018-12-12T02:54:47.657Z,975.97
2018-12-12T02:55:47.714Z,975.95
2018-12-12T02:56:47.737Z,975.98
2018-12-12T02:57:47.828Z,975.95
2018-12-12T02:58:47.835Z,975.96
2018-12-12T02:59:47.847Z,975.91
2018-12-12T03:00:47.885Z,975.92
2018-12-12T03:01:47.921Z,975.96
2018-12-12T03:02:47.958Z,975.95
2018-12-12T03:03:48.019Z,975.95
2018-12-12T03:04:48.031Z,975.94
2018-12-12T03:05:48.075Z,975.95
2018-12-12T03:06:48.110Z,975.95
2018-12-12T03:07:48.152Z,975.96
2018-12-12T03:08:48.209Z,975.95
2018-12-12T03:09:48.222Z,975.95
2018-12-12T03:10:48.264Z,975.93
2018-12-12T03:11:48.316Z,975.93
2018-12-12T03:12:48.349Z,975.93
2018-12-12T03:13:48.373Z,975.93
2018-12-12T03:14:48.525Z,975.95
2018-12-12T03:15:48.446Z,975.92
2018-12-12T03:16:48.486Z,975.90
2018-12-12T03:17:48.544Z,975.87
2018-12-12T03:18:48.562Z,975.83
2018-12-12T03:19:48.596Z,975.83
2018-12-12T03:20:48.636Z,975.82
2018-12-12T03:21:48.669Z,975.82
2018-12-12T03:22:48.728Z,975.87
2018-12-12T03:23:48.744Z,975.87
2018-12-12T03:24:48.782Z,975.81
2018-12-12T03:25:48.820Z,975.83
2018-12-12T03:26:48.857Z,975.84
2018-12-12T03:27:48.916Z,975.79
2018-12-12T03:28:48.943Z,975.83
2018-12-12T03:29:48.979Z,975.87
2018-12-12T03:30:49.016Z,975.85
2018-12-12T03:31:49.044Z,975.84
2018-12-12T03:32:49.274Z,975.87
2018-12-12T03:33:49.122Z,975.87
2018-12-12T03:34:49.158Z,975.83
2018-12-12T03:35:49.196Z,975.82
2018-12-12T03:36:49.239Z,975.80
2018-12-12T03:37:49.297Z,975.80
2018-12-12T03:38:49.307Z,975.80
2018-12-12T03:39:49.439Z,975.78
2018-12-12T03:40:49.382Z,975.79
2018-12-12T03:41:49.418Z,975.76
2018-12-12T03:42:49.476Z,975.79
2018-12-12T03:43:49.517Z,975.77
2018-12-12T03:44:49.559Z,975.74
2018-12-12T03:45:49.571Z,975.74
2018-12-12T03:46:49.607Z,975.72
2018-12-12T03:47:49.666Z,975.73
2018-12-12T03:48:49.682Z,975.67
2018-12-12T03:49:49.744Z,975.72
2018-12-12T03:50:49.759Z,975.74
2018-12-12T03:51:49.817Z,975.73
2018-12-12T03:52:49.833Z,975.71
2018-12-12T03:53:49.865Z,975.70
2018-12-12T03:54:49.926Z,975.71
2018-12-12T03:55:49.949Z,975.73
2018-12-12T03:56:50.013Z,975.72
2018-12-12T03:57:50.030Z,975.69
2018-12-12T03:58:50.056Z,975.66
2018-12-12T03:59:50.099Z,975.67
2018-12-12T04:00:50.129Z,975.66
2018-12-12T04:01:50.192Z,975.61
2018-12-12T04:02:51.000Z,975.66
2018-12-12T04:03:50.241Z,975.59
2018-12-12T04:04:50.410Z,975.59
2018-12-12T04:05:50.317Z,975.58
2018-12-12T04:06:50.373Z,975.60
2018-12-12T04:07:50.417Z,975.61
2018-12-12T04:08:50.431Z,975.62
2018-12-12T04:09:50.463Z,975.60
2018-12-12T04:10:50.500Z,975.60
2018-12-12T04:11:50.559Z,975.61
2018-12-12T04:12:50.577Z,975.60
2018-12-12T04:13:50.612Z,975.60
2018-12-12T04:14:50.648Z,975.62
2018-12-12T04:15:50.717Z,975.64
2018-12-12T04:16:50.755Z,975.58
2018-12-12T04:17:50.783Z,975.64
2018-12-12T04:18:50.804Z,975.63
2018-12-12T04:19:50.838Z,975.65
2018-12-12T04:20:50.876Z,975.63
2018-12-12T04:21:50.915Z,975.65
2018-12-12T04:22:50.976Z,975.61
2018-12-12T04:23:50.998Z,975.61
2018-12-12T04:24:51.042Z,975.63
2018-12-12T04:25:51.059Z,975.63
2018-12-12T04:26:51.099Z,975.63
2018-12-12T04:27:51.140Z,975.61
2018-12-12T04:28:51.195Z,975.64
2018-12-12T04:29:51.238Z,975.64
2018-12-12T04:30:51.248Z,975.59
2018-12-12T04:31:51.279Z,975.61
2018-12-12T04:32:51.328Z,975.64
2018-12-12T04:33:51.374Z,975.62
2018-12-12T04:34:51.414Z,975.62
2018-12-12T04:35:51.453Z,975.63
2018-12-12T04:36:51.465Z,975.62
2018-12-12T04:37:51.502Z,975.61
2018-12-12T04:38:51.540Z,975.63
2018-12-12T04:39:51.605Z,975.58
2018-12-12T04:40:51.684Z,975.59
2018-12-12T04:41:51.662Z,975.58
2018-12-12T04:42:51.699Z,975.62
2018-12-12T04:43:51.728Z,975.59
2018-12-12T04:44:51.792Z,975.59
2018-12-12T04:45:51.807Z,975.53
2018-12-12T04:46:51.839Z,975.58
2018-12-12T04:47:51.911Z,975.58
2018-12-12T04:48:51.918Z,975.58
2018-12-12T04:49:51.975Z,975.53
2018-12-12T04:50:52.009Z,975.53
2018-12-12T04:51:52.039Z,975.53
2018-12-12T04:52:52.082Z,975.53
2018-12-12T04:53:52.097Z,975.56
2018-12-12T04:54:52.175Z,975.53
2018-12-12T04:55:52.175Z,975.52
2018-12-12T04:56:52.216Z,975.58
2018-12-12T04:57:52.266Z,975.56
2018-12-12T04:58:52.293Z,975.61
2018-12-12T04:59:52.321Z,975.60
2018-12-12T05:00:52.358Z,975.59
2018-12-12T05:01:52.424Z,975.60
2018-12-12T05:02:52.442Z,975.62
2018-12-12T05:03:52.469Z,975.61
2018-12-12T05:04:52.506Z,975.67
2018-12-12T05:05:52.572Z,975.67
2018-12-12T05:06:52.579Z,975.66
2018-12-12T05:07:52.630Z,975.65
2018-12-12T05:08:52.655Z,975.66
2018-12-12T05:09:52.706Z,975.66
2018-12-12T05:10:52.746Z,975.65
2018-12-12T05:11:52.764Z,975.61
2018-12-12T05:12:52.813Z,975.63
2018-12-12T05:13:52.839Z,975.60
2018-12-12T05:14:52.875Z,975.60
2018-12-12T05:15:52.931Z,975.62
2018-12-12T05:16:52.948Z,975.59
2018-12-12T05:17:52.987Z,975.61
2018-12-12T05:18:53.041Z,975.64
2018-12-12T05:19:53.060Z,975.63
2018-12-12T05:20:53.102Z,975.63
2018-12-12T05:21:53.182Z,975.67
2018-12-12T05:22:53.168Z,975.59
2018-12-12T05:23:53.228Z,975.58
2018-12-12T05:24:53.247Z,975.60
2018-12-12T05:25:53.282Z,975.56
2018-12-12T05:26:53.346Z,975.60
2018-12-12T05:27:53.356Z,975.59
2018-12-12T05:28:53.394Z,975.61
2018-12-12T05:29:53.452Z,975.56
2018-12-12T05:30:53.987Z,975.55
2018-12-12T05:31:53.528Z,975.50
2018-12-12T05:32:53.547Z,975.54
2018-12-12T05:33:53.577Z,975.56
2018-12-12T05:34:53.615Z,975.63
2018-12-12T05:35:53.653Z,975.62
2018-12-12T05:36:53.712Z,975.58
2018-12-12T05:37:53.726Z,975.65
2018-12-12T05:38:53.771Z,975.61
2018-12-12T05:39:53.808Z,975.59
2018-12-12T05:40:53.834Z,975.63
2018-12-12T05:41:53.904Z,975.57
2018-12-12T05:42:53.909Z,975.60
2018-12-12T05:43:57.588Z,975.58
2018-12-12T05:44:53.991Z,975.56
2018-12-12T05:45:54.020Z,975.59
2018-12-12T05:46:54.076Z,975.56
2018-12-12T05:47:54.095Z,975.58
2018-12-12T05:48:54.133Z,975.59
2018-12-12T05:49:54.176Z,975.66
2018-12-12T05:50:54.212Z,975.64
2018-12-12T05:51:54.279Z,975.67
2018-12-12T05:52:54.289Z,975.67
2018-12-12T05:53:54.317Z,975.67
2018-12-12T05:54:54.359Z,975.69
2018-12-12T05:55:54.393Z,975.68
2018-12-12T05:56:54.458Z,975.68
2018-12-12T05:57:54.473Z,975.69
2018-12-12T05:58:54.507Z,975.66
2018-12-12T05:59:54.540Z,975.67
2018-12-12T06:00:54.576Z,975.65
2018-12-12T06:01:54.630Z,975.65
2018-12-12T06:02:54.668Z,975.63
2018-12-12T06:03:54.686Z,975.60
2018-12-12T06:04:54.766Z,975.61
2018-12-12T06:05:54.763Z,975.64
2018-12-12T06:06:54.821Z,975.64
2018-12-12T06:07:54.856Z,975.66
2018-12-12T06:08:54.877Z,975.65
2018-12-12T06:09:54.910Z,975.65
2018-12-12T06:10:54.948Z,975.65
2018-12-12T06:11:54.994Z,975.65
2018-12-12T06:12:55.043Z,975.69
2018-12-12T06:13:55.078Z,975.66
2018-12-12T06:14:55.114Z,975.70
2018-12-12T06:15:55.131Z,975.66
2018-12-12T06:16:55.175Z,975.68
2018-12-12T06:17:55.207Z,975.71
2018-12-12T06:18:55.283Z,975.69
2018-12-12T06:19:55.281Z,975.69
2018-12-12T06:20:55.325Z,975.72
2018-12-12T06:21:55.358Z,975.65
2018-12-12T06:22:55.392Z,975.67
2018-12-12T06:23:55.448Z,975.68
2018-12-12T06:24:55.464Z,975.66
2018-12-12T06:25:55.500Z,975.65
2018-12-12T06:26:55.537Z,975.63
2018-12-12T06:27:55.581Z,975.62
2018-12-12T06:28:55.635Z,975.61
2018-12-12T06:29:55.646Z,975.62
2018-12-12T06:30:55.687Z,975.64
2018-12-12T06:31:55.728Z,975.64
2018-12-12T06:32:55.761Z,975.63
2018-12-12T06:33:55.826Z,975.63
2018-12-12T06:34:55.846Z,975.65
2018-12-12T06:35:55.872Z,975.63
2018-12-12T06:36:55.938Z,975.67
2018-12-12T06:37:55.948Z,975.64
2018-12-12T06:38:55.989Z,975.68
2018-12-12T06:39:56.051Z,975.63
2018-12-12T06:40:56.065Z,975.65
2018-12-12T06:41:56.114Z,975.61
2018-12-12T06:42:56.132Z,975.63
2018-12-12T06:43:56.166Z,975.66
2018-12-12T06:44:56.205Z,975.67
2018-12-12T06:45:56.268Z,975.64
2018-12-12T06:46:56.278Z,975.64
2018-12-12T06:47:56.322Z,975.68
2018-12-12T06:48:56.354Z,975.70
2018-12-12T06:49:56.392Z,975.71
2018-12-12T06:50:56.449Z,975.71
2018-12-12T06:51:56.472Z,975.74
2018-12-12T06:52:56.503Z,975.73
2018-12-12T06:53:56.538Z,975.76
2018-12-12T06:54:56.605Z,975.75
2018-12-12T06:55:56.613Z,975.78
2018-12-12T06:56:56.668Z,975.76
2018-12-12T06:57:56.721Z,975.76
2018-12-12T06:58:56.731Z,975.75
2018-12-12T06:59:56.807Z,975.80
2018-12-12T07:00:57.674Z,975.78
2018-12-12T07:01:56.865Z,975.77
2018-12-12T07:02:56.879Z,975.79
2018-12-12T07:03:56.913Z,975.82
2018-12-12T07:04:57.681Z,975.80
2018-12-12T07:05:56.988Z,975.83
2018-12-12T07:06:57.050Z,975.88
2018-12-12T07:07:57.060Z,975.80
2018-12-12T07:08:57.097Z,975.82
2018-12-12T07:09:57.131Z,975.82
2018-12-12T07:10:57.167Z,975.88
2018-12-12T07:11:57.226Z,975.85
2018-12-12T07:12:57.369Z,975.87
2018-12-12T07:13:57.296Z,975.89
2018-12-12T07:14:57.314Z,975.82
2018-12-12T07:15:57.360Z,975.85
2018-12-12T07:16:57.389Z,975.84
2018-12-12T07:17:57.447Z,975.78
2018-12-12T07:18:57.463Z,975.80
2018-12-12T07:19:57.508Z,975.81
2018-12-12T07:20:57.540Z,975.81
2018-12-12T07:21:57.575Z,975.85
2018-12-12T07:22:57.639Z,975.82
2018-12-12T07:23:57.645Z,975.84
2018-12-12T07:24:57.702Z,975.83
2018-12-12T07:25:57.719Z,975.82
2018-12-12T07:26:57.756Z,975.83
2018-12-12T07:27:57.793Z,975.84
2018-12-12T07:28:57.833Z,975.82
2018-12-12T07:29:57.895Z,975.80
2018-12-12T07:30:57.919Z,975.85
2018-12-12T07:31:57.951Z,975.82
2018-12-12T07:32:57.994Z,975.82
2018-12-12T07:34:00.861Z,975.83
2018-12-12T07:34:58.078Z,975.78
2018-12-12T07:35:59.595Z,975.77
2018-12-12T07:36:58.135Z,975.80
2018-12-12T07:37:58.982Z,975.78
2018-12-12T07:38:58.670Z,975.82
2018-12-12T07:39:58.266Z,975.77
2018-12-12T07:40:58.298Z,975.76
2018-12-12T07:41:58.314Z,975.84
2018-12-12T07:42:58.367Z,975.76
2018-12-12T07:43:58.382Z,975.74
2018-12-12T07:44:58.420Z,975.81
2018-12-12T07:45:58.489Z,975.84
2018-12-12T07:46:58.498Z,975.83
2018-12-12T07:48:01.385Z,975.80
2018-12-12T07:48:58.571Z,975.86
2018-12-12T07:49:58.612Z,975.86
2018-12-12T07:50:59.170Z,975.81
2018-12-12T07:51:58.676Z,975.84
2018-12-12T07:52:58.731Z,975.84
2018-12-12T07:53:58.754Z,975.85
2018-12-12T07:54:58.802Z,975.83
2018-12-12T07:55:58.963Z,975.89
2018-12-12T07:56:58.862Z,975.82
2018-12-12T07:57:58.926Z,975.86
2018-12-12T07:58:58.980Z,975.86
2018-12-12T07:59:58.985Z,975.88
2018-12-12T08:00:59.016Z,975.91
2018-12-12T08:01:59.054Z,975.90
2018-12-12T08:03:04.739Z,975.94
2018-12-12T08:03:59.144Z,975.93
2018-12-12T08:04:59.185Z,975.91
2018-12-12T08:05:59.236Z,975.88
2018-12-12T08:06:59.259Z,975.89
2018-12-12T08:07:59.289Z,975.91
2018-12-12T08:08:59.345Z,975.87
2018-12-12T08:09:59.386Z,975.88
2018-12-12T08:10:59.411Z,975.92
2018-12-12T08:11:59.446Z,975.87
2018-12-12T08:13:00.467Z,975.91
2018-12-12T08:13:59.572Z,975.90
2018-12-12T08:14:59.571Z,975.84
2018-12-12T08:15:59.614Z,975.86
2018-12-12T08:16:59.671Z,975.86
2018-12-12T08:17:59.695Z,975.87
2018-12-12T08:18:59.761Z,975.87
2018-12-12T08:19:59.779Z,975.88
2018-12-12T08:20:59.846Z,975.86
2018-12-12T08:21:59.862Z,975.89
2018-12-12T08:22:59.904Z,975.84
2018-12-12T08:23:59.947Z,975.89
2018-12-12T08:24:59.987Z,975.83
2018-12-12T08:26:00.689Z,975.88
2018-12-12T08:27:00.087Z,975.90
2018-12-12T08:28:00.115Z,975.89
2018-12-12T08:29:00.163Z,975.90
2018-12-12T08:30:00.198Z,975.87
2018-12-12T08:31:00.243Z,975.88
2018-12-12T08:32:00.304Z,975.84
2018-12-12T08:33:01.167Z,975.88
2018-12-12T08:34:00.368Z,975.87
2018-12-12T08:35:00.414Z,975.89
2018-12-12T08:36:01.167Z,975.90
2018-12-12T08:37:00.514Z,975.87
2018-12-12T08:38:01.188Z,975.92
2018-12-12T08:39:00.580Z,975.89
2018-12-12T08:40:01.168Z,975.92
2018-12-12T08:41:01.167Z,975.88
2018-12-12T08:42:00.724Z,975.91
2018-12-12T08:43:00.747Z,975.91
2018-12-12T08:44:00.786Z,975.86
2018-12-12T08:45:00.836Z,975.88
2018-12-12T08:46:00.874Z,975.88
2018-12-12T08:47:00.940Z,975.89
2018-12-12T08:48:00.956Z,975.91
2018-12-12T08:49:01.017Z,975.91
2018-12-12T08:50:01.046Z,975.94
2018-12-12T08:51:01.102Z,975.90
2018-12-12T08:52:01.132Z,975.89
2018-12-12T08:53:01.234Z,975.87
2018-12-12T08:54:01.209Z,975.87
2018-12-12T08:55:01.260Z,975.89
2018-12-12T08:56:02.885Z,975.86
2018-12-12T08:57:01.333Z,975.87
2018-12-12T08:58:01.382Z,975.94
2018-12-12T08:59:02.199Z,975.89
2018-12-12T09:00:01.496Z,975.88
2018-12-12T09:01:01.500Z,975.92
2018-12-12T09:02:01.550Z,975.97
2018-12-12T09:03:01.606Z,975.99
2018-12-12T09:04:01.639Z,976.03
2018-12-12T09:05:01.683Z,975.98
2018-12-12T09:06:01.828Z,976.01
2018-12-12T09:07:01.768Z,976.02
2018-12-12T09:08:01.826Z,976.04
2018-12-12T09:09:01.844Z,976.02
2018-12-12T09:10:01.886Z,976.07
2018-12-12T09:11:01.957Z,976.08
2018-12-12T09:12:02.007Z,976.07
2018-12-12T09:13:02.039Z,976.09
2018-12-12T09:14:02.071Z,976.15
2018-12-12T09:15:02.103Z,976.12
2018-12-12T09:16:02.142Z,976.14
2018-12-12T09:17:02.188Z,976.14
2018-12-12T09:18:02.255Z,976.12
2018-12-12T09:19:02.278Z,976.11
2018-12-12T09:20:02.315Z,976.11
2018-12-12T09:21:02.358Z,976.07
2018-12-12T09:22:02.401Z,976.07
2018-12-12T09:23:02.525Z,976.05
2018-12-12T09:24:02.491Z,976.04
2018-12-12T09:25:02.546Z,976.01
2018-12-12T09:26:02.582Z,976.02
2018-12-12T09:27:02.621Z,976.06
2018-12-12T09:28:03.170Z,976.04
2018-12-12T09:29:02.712Z,976.05
2018-12-12T09:30:02.757Z,976.04
2018-12-12T09:31:02.808Z,975.98
2018-12-12T09:32:02.919Z,976.03
2018-12-12T09:33:02.915Z,975.98
2018-12-12T09:34:02.939Z,975.97
2018-12-12T09:35:03.047Z,975.97
2018-12-12T09:36:03.029Z,976.00
2018-12-12T09:37:03.099Z,975.99
2018-12-12T09:38:03.117Z,976.00
2018-12-12T09:39:03.180Z,976.01
2018-12-12T09:40:03.239Z,976.02
2018-12-12T09:41:03.264Z,976.01
2018-12-12T09:42:03.311Z,975.98
2018-12-12T09:43:03.353Z,975.97
2018-12-12T09:44:03.420Z,975.98
2018-12-12T09:45:04.843Z,975.96
2018-12-12T09:46:03.490Z,976.00
2018-12-12T09:47:03.550Z,975.92
2018-12-12T09:48:03.574Z,975.92
2018-12-12T09:49:03.648Z,975.96
2018-12-12T09:50:03.670Z,975.96
2018-12-12T09:51:07.333Z,975.94
2018-12-12T09:52:03.766Z,975.93
2018-12-12T09:53:03.811Z,975.93
2018-12-12T09:54:03.855Z,975.90
2018-12-12T09:55:03.904Z,975.87
2018-12-12T09:56:03.980Z,975.92
2018-12-12T09:57:04.000Z,975.89
2018-12-12T09:58:04.043Z,975.91
2018-12-12T09:59:04.089Z,975.92
2018-12-12T10:00:04.137Z,975.90
2018-12-12T10:01:04.205Z,975.91
2018-12-12T10:02:04.244Z,975.92
2018-12-12T10:03:04.290Z,975.87
2018-12-12T10:04:04.331Z,975.89
2018-12-12T10:05:04.372Z,975.93
2018-12-12T10:06:04.440Z,975.92
2018-12-12T10:07:04.475Z,975.88
2018-12-12T10:08:04.505Z,975.92
2018-12-12T10:09:04.618Z,975.88
2018-12-12T10:10:04.598Z,975.84
2018-12-12T10:11:04.665Z,975.86
2018-12-12T10:12:04.694Z,975.85
2018-12-12T10:13:04.743Z,975.85
2018-12-12T10:14:04.819Z,975.84
2018-12-12T10:15:04.834Z,975.81
2018-12-12T10:16:04.889Z,975.81
2018-12-12T10:17:04.933Z,975.82
2018-12-12T10:18:04.981Z,975.79
2018-12-12T10:19:05.042Z,975.79
2018-12-12T10:20:05.083Z,975.75
2018-12-12T10:21:05.117Z,975.75
2018-12-12T10:22:05.166Z,975.78
2018-12-12T10:23:05.210Z,975.77
2018-12-12T10:24:05.282Z,975.73
2018-12-12T10:25:05.307Z,975.73
2018-12-12T10:26:05.365Z,975.70
2018-12-12T10:27:05.401Z,975.69
2018-12-12T10:28:05.448Z,975.66
2018-12-12T10:29:05.521Z,975.65
2018-12-12T10:30:05.545Z,975.60
2018-12-12T10:31:05.600Z,975.58
2018-12-12T10:32:05.639Z,975.61
2018-12-12T10:33:05.690Z,975.58
2018-12-12T10:34:05.750Z,975.53
2018-12-12T10:35:05.777Z,975.58
2018-12-12T10:36:05.851Z,975.54
2018-12-12T10:37:05.864Z,975.53
2018-12-12T10:38:05.912Z,975.49
2018-12-12T10:39:05.958Z,975.50
2018-12-12T10:40:06.000Z,975.46
2018-12-12T10:41:06.084Z,975.44
2018-12-12T10:42:06.085Z,975.49
2018-12-12T10:43:06.137Z,975.44
2018-12-12T10:44:06.176Z,975.42
2018-12-12T10:45:06.221Z,975.42
2018-12-12T10:46:06.296Z,975.37
2018-12-12T10:47:06.301Z,975.38
2018-12-12T10:48:06.342Z,975.44
2018-12-12T10:49:06.398Z,975.38
2018-12-12T10:50:06.433Z,975.34
2018-12-12T10:51:06.492Z,975.35
2018-12-12T10:52:06.511Z,975.34
2018-12-12T10:53:06.561Z,975.36
2018-12-12T10:54:06.616Z,975.36
2018-12-12T10:55:06.640Z,975.29
2018-12-12T10:56:06.680Z,975.27
2018-12-12T10:57:06.723Z,975.28
2018-12-12T10:58:06.761Z,975.26
2018-12-12T10:59:06.832Z,975.23
2018-12-12T11:00:12.461Z,975.25
2018-12-12T11:01:06.889Z,975.25
2018-12-12T11:02:06.955Z,975.19
2018-12-12T11:03:06.975Z,975.22
2018-12-12T11:04:07.020Z,975.20
2018-12-12T11:05:07.055Z,975.21
2018-12-12T11:06:07.117Z,975.16
2018-12-12T11:07:07.159Z,975.12
2018-12-12T11:08:07.180Z,975.15
2018-12-12T11:09:07.222Z,975.12
2018-12-12T11:10:07.278Z,975.11
2018-12-12T11:11:07.306Z,975.08
2018-12-12T11:12:07.339Z,975.06
2018-12-12T11:13:07.379Z,975.07
2018-12-12T11:14:07.424Z,975.06
2018-12-12T11:15:07.484Z,975.01
2018-12-12T11:16:07.578Z,975.04
2018-12-12T11:17:07.539Z,975.01
2018-12-12T11:18:07.590Z,974.99
2018-12-12T11:19:07.650Z,974.98
2018-12-12T11:20:07.664Z,974.99
2018-12-12T11:21:07.726Z,974.95
2018-12-12T11:22:07.744Z,974.90
2018-12-12T11:23:07.789Z,974.92
2018-12-12T11:24:07.830Z,974.91
2018-12-12T11:25:07.909Z,974.92
2018-12-12T11:26:07.927Z,974.91
2018-12-12T11:27:07.946Z,974.89
2018-12-12T11:28:07.986Z,974.87
2018-12-12T11:29:08.028Z,974.85
2018-12-12T11:30:08.087Z,974.81
2018-12-12T11:31:08.126Z,974.83
2018-12-12T11:32:08.154Z,974.82
2018-12-12T11:33:08.204Z,974.82
2018-12-12T11:34:08.232Z,974.83
2018-12-12T11:35:08.279Z,974.81
2018-12-12T11:36:08.347Z,974.81
2018-12-12T11:37:08.372Z,974.77
2018-12-12T11:38:08.403Z,974.76
2018-12-12T11:39:08.434Z,974.78
2018-12-12T11:40:08.479Z,974.75
2018-12-12T11:41:08.522Z,974.72
2018-12-12T11:42:08.579Z,974.73
2018-12-12T11:43:08.607Z,974.70
2018-12-12T11:44:08.637Z,974.70
2018-12-12T11:45:08.677Z,974.70
2018-12-12T11:46:08.724Z,974.68
2018-12-12T11:47:09.483Z,974.67
2018-12-12T11:48:08.816Z,974.68
2018-12-12T11:49:08.840Z,974.69
2018-12-12T11:50:08.880Z,974.66
2018-12-12T11:51:08.921Z,974.64
2018-12-12T11:52:08.985Z,974.61
2018-12-12T11:53:09.004Z,974.61
2018-12-12T11:54:09.040Z,974.58
2018-12-12T11:55:09.082Z,974.53
2018-12-12T11:56:09.123Z,974.52
2018-12-12T11:57:09.189Z,974.49
2018-12-12T11:58:09.212Z,974.48
2018-12-12T11:59:09.254Z,974.47
2018-12-12T12:00:09.286Z,974.43
2018-12-12T12:01:09.330Z,974.44
2018-12-12T12:02:09.389Z,974.43
2018-12-12T12:03:09.416Z,974.40
2018-12-12T12:04:09.472Z,974.40
2018-12-12T12:05:10.170Z,974.46
2018-12-12T12:06:09.579Z,974.40
2018-12-12T12:07:09.576Z,974.37
2018-12-12T12:08:09.650Z,974.40
2018-12-12T12:09:09.657Z,974.39
2018-12-12T12:10:09.697Z,974.36
2018-12-12T12:11:09.745Z,974.33
2018-12-12T12:12:09.813Z,974.35
2018-12-12T12:13:09.823Z,974.38
2018-12-12T12:14:09.865Z,974.36
2018-12-12T12:15:09.914Z,974.36
2018-12-12T12:16:09.947Z,974.31
2018-12-12T12:17:10.014Z,974.35
2018-12-12T12:18:10.042Z,974.32
2018-12-12T12:19:10.075Z,974.30
2018-12-12T12:20:10.159Z,974.37
2018-12-12T12:21:10.181Z,974.33
2018-12-12T12:22:10.204Z,974.29
2018-12-12T12:23:10.247Z,974.33
2018-12-12T12:24:10.281Z,974.31
2018-12-12T12:25:10.355Z,974.31
2018-12-12T12:26:10.369Z,974.31
2018-12-12T12:27:10.405Z,974.30
2018-12-12T12:28:10.453Z,974.30
2018-12-12T12:29:10.511Z,974.32